sensor_id;sensor_type;location;lat;lon;timestamp;P1;durP1;ratioP1;P2;durP2;ratioP2
49590;SDS011;35496;-21.974;-46.800;2023-02-12T00:00:28;7.22;;;2.90;;
49590;SDS011;35496;-21.974;-46.800;2023-02-12T00:03:45;4.55;;;3.03;;
49590;SDS011;35496;-21.974;-46.800;2023-02-12T00:07:02;8.75;;;3.03;;
49590;SDS011;35496;-21.974;-46.800;2023-02-12T00:09:59;5.53;;;2.95;;
49590;SDS011;35496;-21.974;-46.800;2023-02-12T00:12:53;7.87;;;2.30;;
49590;SDS011;35496;-21.974;-46.800;2023-02-12T00:15:49;2.72;;;2.50;;
49590;SDS011;35496;-21.974;-46.800;2023-02-12T00:19:07;3.70;;;2.22;;
49590;SDS011;35496;-21.974;-46.800;2023-02-12T00:21:34;2.42;;;1.80;;
49590;SDS011;35496;-21.974;-46.800;2023-02-12T00:24:01;3.53;;;2.15;;
49590;SDS011;35496;-21.974;-46.800;2023-02-12T00:26:29;9.27;;;1.83;;
49590;SDS011;35496;-21.974;-46.800;2023-02-12T00:28:56;6.15;;;2.03;;
49590;SDS011;35496;-21.974;-46.800;2023-02-12T00:31:26;1.58;;;1.25;;
49590;SDS011;35496;-21.974;-46.800;2023-02-12T00:34:10;4.20;;;1.98;;
49590;SDS011;35496;-21.974;-46.800;2023-02-12T00:37:03;3.17;;;1.52;;
49590;SDS011;35496;-21.974;-46.800;2023-02-12T00:39:51;1.95;;;1.73;;
49590;SDS011;35496;-21.974;-46.800;2023-02-12T00:42:40;2.75;;;1.70;;
49590;SDS011;35496;-21.974;-46.800;2023-02-12T00:45:13;2.00;;;1.90;;
49590;SDS011;35496;-21.974;-46.800;2023-02-12T00:47:40;8.05;;;2.90;;
49590;SDS011;35496;-21.974;-46.800;2023-02-12T00:51:00;5.38;;;1.75;;
49590;SDS011;35496;-21.974;-46.800;2023-02-12T00:53:50;7.30;;;2.78;;
49590;SDS011;35496;-21.974;-46.800;2023-02-12T00:56:35;3.90;;;2.13;;
49590;SDS011;35496;-21.974;-46.800;2023-02-12T00:59:14;3.67;;;2.15;;
49590;SDS011;35496;-21.974;-46.800;2023-02-12T01:02:07;11.27;;;2.63;;
49590;SDS011;35496;-21.974;-46.800;2023-02-12T01:05:32;14.35;;;4.28;;
49590;SDS011;35496;-21.974;-46.800;2023-02-12T01:08:57;6.43;;;3.35;;
49590;SDS011;35496;-21.974;-46.800;2023-02-12T01:12:22;5.78;;;3.63;;
49590;SDS011;35496;-21.974;-46.800;2023-02-12T01:15:48;5.07;;;3.75;;
49590;SDS011;35496;-21.974;-46.800;2023-02-12T01:19:13;4.68;;;2.90;;
49590;SDS011;35496;-21.974;-46.800;2023-02-12T01:22:41;4.45;;;2.70;;
49590;SDS011;35496;-21.974;-46.800;2023-02-12T01:26:07;4.75;;;3.50;;
49590;SDS011;35496;-21.974;-46.800;2023-02-12T01:29:32;4.78;;;3.00;;
49590;SDS011;35496;-21.974;-46.800;2023-02-12T01:32:57;4.72;;;3.78;;
49590;SDS011;35496;-21.974;-46.800;2023-02-12T01:36:24;3.25;;;2.75;;
49590;SDS011;35496;-21.974;-46.800;2023-02-12T01:39:49;10.98;;;4.40;;
49590;SDS011;35496;-21.974;-46.800;2023-02-12T01:43:14;17.70;;;3.60;;
49590;SDS011;35496;-21.974;-46.800;2023-02-12T01:46:42;5.20;;;4.05;;
49590;SDS011;35496;-21.974;-46.800;2023-02-12T01:50:15;8.73;;;3.85;;
49590;SDS011;35496;-21.974;-46.800;2023-02-12T01:53:46;4.95;;;4.05;;
49590;SDS011;35496;-21.974;-46.800;2023-02-12T01:57:14;19.85;;;4.40;;
49590;SDS011;35496;-21.974;-46.800;2023-02-12T02:00:40;7.13;;;2.67;;
49590;SDS011;35496;-21.974;-46.800;2023-02-12T02:04:07;3.53;;;2.60;;
49590;SDS011;35496;-21.974;-46.800;2023-02-12T02:07:34;3.88;;;3.22;;
49590;SDS011;35496;-21.974;-46.800;2023-02-12T02:10:59;8.27;;;4.25;;
49590;SDS011;35496;-21.974;-46.800;2023-02-12T02:14:42;4.53;;;3.13;;
49590;SDS011;35496;-21.974;-46.800;2023-02-12T02:18:15;10.10;;;4.20;;
49590;SDS011;35496;-21.974;-46.800;2023-02-12T02:33:03;1.15;;;1.15;;
49590;SDS011;35496;-21.974;-46.800;2023-02-12T02:43:55;0.63;;;0.57;;
49590;SDS011;35496;-21.974;-46.800;2023-02-12T02:47:26;3.22;;;1.35;;
49590;SDS011;35496;-21.974;-46.800;2023-02-12T02:51:08;1.13;;;1.00;;
49590;SDS011;35496;-21.974;-46.800;2023-02-12T02:55:00;2.13;;;0.90;;
49590;SDS011;35496;-21.974;-46.800;2023-02-12T02:58:43;0.60;;;0.52;;
49590;SDS011;35496;-21.974;-46.800;2023-02-12T03:02:19;2.50;;;1.10;;
49590;SDS011;35496;-21.974;-46.800;2023-02-12T03:06:01;1.25;;;0.85;;
49590;SDS011;35496;-21.974;-46.800;2023-02-12T03:13:09;1.85;;;1.35;;
49590;SDS011;35496;-21.974;-46.800;2023-02-12T03:20:23;1.23;;;0.93;;
49590;SDS011;35496;-21.974;-46.800;2023-02-12T03:27:32;1.20;;;0.98;;
49590;SDS011;35496;-21.974;-46.800;2023-02-12T03:50:00;1.60;;;1.13;;
49590;SDS011;35496;-21.974;-46.800;2023-02-12T03:53:39;1.33;;;1.15;;
49590;SDS011;35496;-21.974;-46.800;2023-02-12T03:57:06;1.60;;;0.77;;
49590;SDS011;35496;-21.974;-46.800;2023-02-12T04:00:35;1.33;;;1.13;;
49590;SDS011;35496;-21.974;-46.800;2023-02-12T04:04:02;2.13;;;1.00;;
49590;SDS011;35496;-21.974;-46.800;2023-02-12T04:07:29;4.68;;;1.70;;
49590;SDS011;35496;-21.974;-46.800;2023-02-12T04:32:59;2.35;;;1.52;;
49590;SDS011;35496;-21.974;-46.800;2023-02-12T04:40:06;1.88;;;0.93;;
49590;SDS011;35496;-21.974;-46.800;2023-02-12T04:43:34;3.53;;;1.52;;
49590;SDS011;35496;-21.974;-46.800;2023-02-12T04:47:02;2.53;;;1.13;;
49590;SDS011;35496;-21.974;-46.800;2023-02-12T04:50:31;0.95;;;0.63;;
49590;SDS011;35496;-21.974;-46.800;2023-02-12T04:57:25;1.27;;;0.80;;
49590;SDS011;35496;-21.974;-46.800;2023-02-12T05:00:50;4.53;;;0.88;;
49590;SDS011;35496;-21.974;-46.800;2023-02-12T05:04:16;0.50;;;0.50;;
49590;SDS011;35496;-21.974;-46.800;2023-02-12T05:07:41;3.70;;;0.80;;
49590;SDS011;35496;-21.974;-46.800;2023-02-12T05:11:07;9.75;;;1.00;;
49590;SDS011;35496;-21.974;-46.800;2023-02-12T05:14:33;0.63;;;0.63;;
49590;SDS011;35496;-21.974;-46.800;2023-02-12T05:17:58;8.50;;;1.55;;
49590;SDS011;35496;-21.974;-46.800;2023-02-12T05:21:23;4.97;;;0.82;;
49590;SDS011;35496;-21.974;-46.800;2023-02-12T05:24:48;6.32;;;0.98;;
49590;SDS011;35496;-21.974;-46.800;2023-02-12T05:28:13;2.03;;;0.90;;
49590;SDS011;35496;-21.974;-46.800;2023-02-12T05:31:38;1.23;;;1.05;;
49590;SDS011;35496;-21.974;-46.800;2023-02-12T05:35:03;1.73;;;1.00;;
49590;SDS011;35496;-21.974;-46.800;2023-02-12T05:38:33;4.65;;;1.30;;
49590;SDS011;35496;-21.974;-46.800;2023-02-12T05:41:58;3.80;;;1.73;;
49590;SDS011;35496;-21.974;-46.800;2023-02-12T05:45:23;2.17;;;1.20;;
49590;SDS011;35496;-21.974;-46.800;2023-02-12T05:48:48;2.88;;;0.90;;
49590;SDS011;35496;-21.974;-46.800;2023-02-12T05:56:07;1.90;;;0.98;;
49590;SDS011;35496;-21.974;-46.800;2023-02-12T05:59:33;1.60;;;1.13;;
49590;SDS011;35496;-21.974;-46.800;2023-02-12T06:02:58;0.93;;;0.70;;
49590;SDS011;35496;-21.974;-46.800;2023-02-12T06:06:24;0.90;;;0.73;;
49590;SDS011;35496;-21.974;-46.800;2023-02-12T06:09:49;2.20;;;1.40;;
49590;SDS011;35496;-21.974;-46.800;2023-02-12T06:13:14;0.70;;;0.70;;
49590;SDS011;35496;-21.974;-46.800;2023-02-12T06:16:42;1.10;;;1.00;;
49590;SDS011;35496;-21.974;-46.800;2023-02-12T06:20:07;1.70;;;1.45;;
49590;SDS011;35496;-21.974;-46.800;2023-02-12T06:23:32;3.33;;;0.93;;
49590;SDS011;35496;-21.974;-46.800;2023-02-12T06:26:58;2.35;;;1.00;;
49590;SDS011;35496;-21.974;-46.800;2023-02-12T06:30:23;1.25;;;1.17;;
49590;SDS011;35496;-21.974;-46.800;2023-02-12T06:33:50;1.80;;;1.55;;
49590;SDS011;35496;-21.974;-46.800;2023-02-12T06:37:15;3.08;;;1.45;;
49590;SDS011;35496;-21.974;-46.800;2023-02-12T06:40:40;2.05;;;1.10;;
49590;SDS011;35496;-21.974;-46.800;2023-02-12T06:44:05;1.98;;;0.82;;
49590;SDS011;35496;-21.974;-46.800;2023-02-12T06:47:30;2.47;;;1.52;;
49590;SDS011;35496;-21.974;-46.800;2023-02-12T06:50:56;4.05;;;1.42;;
49590;SDS011;35496;-21.974;-46.800;2023-02-12T06:54:25;1.45;;;0.80;;
49590;SDS011;35496;-21.974;-46.800;2023-02-12T06:57:49;1.80;;;1.17;;
49590;SDS011;35496;-21.974;-46.800;2023-02-12T07:01:19;1.10;;;1.00;;
49590;SDS011;35496;-21.974;-46.800;2023-02-12T07:04:44;0.60;;;0.60;;
49590;SDS011;35496;-21.974;-46.800;2023-02-12T07:08:10;1.45;;;0.95;;
49590;SDS011;35496;-21.974;-46.800;2023-02-12T07:11:35;2.58;;;0.82;;
49590;SDS011;35496;-21.974;-46.800;2023-02-12T07:15:00;1.88;;;0.90;;
49590;SDS011;35496;-21.974;-46.800;2023-02-12T07:18:30;4.70;;;0.80;;
49590;SDS011;35496;-21.974;-46.800;2023-02-12T07:21:55;1.00;;;1.00;;
49590;SDS011;35496;-21.974;-46.800;2023-02-12T07:25:20;1.48;;;0.95;;
49590;SDS011;35496;-21.974;-46.800;2023-02-12T07:28:46;3.38;;;0.75;;
49590;SDS011;35496;-21.974;-46.800;2023-02-12T07:32:11;1.58;;;0.73;;
49590;SDS011;35496;-21.974;-46.800;2023-02-12T07:35:36;3.85;;;1.30;;
49590;SDS011;35496;-21.974;-46.800;2023-02-12T07:39:01;2.40;;;0.80;;
49590;SDS011;35496;-21.974;-46.800;2023-02-12T07:42:26;1.85;;;1.02;;
49590;SDS011;35496;-21.974;-46.800;2023-02-12T07:45:45;1.58;;;1.00;;
49590;SDS011;35496;-21.974;-46.800;2023-02-12T07:49:21;1.40;;;1.30;;
49590;SDS011;35496;-21.974;-46.800;2023-02-12T07:52:47;1.17;;;1.02;;
49590;SDS011;35496;-21.974;-46.800;2023-02-12T07:56:23;0.93;;;0.90;;
49590;SDS011;35496;-21.974;-46.800;2023-02-12T07:59:47;0.98;;;0.90;;
49590;SDS011;35496;-21.974;-46.800;2023-02-12T08:03:11;1.30;;;0.63;;
49590;SDS011;35496;-21.974;-46.800;2023-02-12T08:06:41;2.03;;;1.00;;
49590;SDS011;35496;-21.974;-46.800;2023-02-12T08:10:06;1.40;;;0.95;;
49590;SDS011;35496;-21.974;-46.800;2023-02-12T08:13:32;2.10;;;0.90;;
49590;SDS011;35496;-21.974;-46.800;2023-02-12T08:16:54;2.80;;;1.23;;
49590;SDS011;35496;-21.974;-46.800;2023-02-12T08:20:20;1.65;;;0.90;;
49590;SDS011;35496;-21.974;-46.800;2023-02-12T08:23:36;3.30;;;1.10;;
49590;SDS011;35496;-21.974;-46.800;2023-02-12T08:26:58;2.70;;;1.30;;
49590;SDS011;35496;-21.974;-46.800;2023-02-12T08:30:23;1.40;;;1.30;;
49590;SDS011;35496;-21.974;-46.800;2023-02-12T08:33:50;1.90;;;1.60;;
49590;SDS011;35496;-21.974;-46.800;2023-02-12T08:37:15;1.40;;;1.25;;
49590;SDS011;35496;-21.974;-46.800;2023-02-12T08:40:40;3.55;;;1.40;;
49590;SDS011;35496;-21.974;-46.800;2023-02-12T08:44:09;1.13;;;1.13;;
49590;SDS011;35496;-21.974;-46.800;2023-02-12T08:47:34;4.50;;;1.60;;
49590;SDS011;35496;-21.974;-46.800;2023-02-12T08:51:10;2.47;;;1.60;;
49590;SDS011;35496;-21.974;-46.800;2023-02-12T08:54:35;3.88;;;1.38;;
49590;SDS011;35496;-21.974;-46.800;2023-02-12T08:58:00;4.18;;;2.97;;
49590;SDS011;35496;-21.974;-46.800;2023-02-12T09:01:27;2.95;;;1.73;;
49590;SDS011;35496;-21.974;-46.800;2023-02-12T09:04:52;1.48;;;1.15;;
49590;SDS011;35496;-21.974;-46.800;2023-02-12T09:08:17;2.45;;;1.20;;
49590;SDS011;35496;-21.974;-46.800;2023-02-12T09:11:44;3.80;;;1.75;;
49590;SDS011;35496;-21.974;-46.800;2023-02-12T09:15:09;2.17;;;1.90;;
49590;SDS011;35496;-21.974;-46.800;2023-02-12T09:18:34;2.03;;;1.80;;
49590;SDS011;35496;-21.974;-46.800;2023-02-12T09:22:01;3.42;;;1.90;;
49590;SDS011;35496;-21.974;-46.800;2023-02-12T09:25:26;2.25;;;1.75;;
49590;SDS011;35496;-21.974;-46.800;2023-02-12T09:28:19;3.25;;;1.70;;
49590;SDS011;35496;-21.974;-46.800;2023-02-12T09:31:44;3.80;;;1.98;;
49590;SDS011;35496;-21.974;-46.800;2023-02-12T09:35:11;6.28;;;1.85;;
49590;SDS011;35496;-21.974;-46.800;2023-02-12T09:38:02;2.33;;;1.35;;
49590;SDS011;35496;-21.974;-46.800;2023-02-12T09:45:38;4.57;;;2.15;;
49590;SDS011;35496;-21.974;-46.800;2023-02-12T09:53:09;2.78;;;2.13;;
49590;SDS011;35496;-21.974;-46.800;2023-02-12T09:56:43;3.53;;;1.45;;
49590;SDS011;35496;-21.974;-46.800;2023-02-12T10:00:17;14.57;;;1.58;;
49590;SDS011;35496;-21.974;-46.800;2023-02-12T10:03:47;1.25;;;1.15;;
49590;SDS011;35496;-21.974;-46.800;2023-02-12T10:07:29;1.63;;;1.40;;
49590;SDS011;35496;-21.974;-46.800;2023-02-12T10:15:00;3.30;;;2.05;;
49590;SDS011;35496;-21.974;-46.800;2023-02-12T10:18:59;5.45;;;1.88;;
49590;SDS011;35496;-21.974;-46.800;2023-02-12T10:22:33;3.88;;;1.73;;
49590;SDS011;35496;-21.974;-46.800;2023-02-12T10:29:47;6.32;;;2.30;;
49590;SDS011;35496;-21.974;-46.800;2023-02-12T10:33:21;2.78;;;1.60;;
49590;SDS011;35496;-21.974;-46.800;2023-02-12T10:36:57;3.40;;;1.70;;
49590;SDS011;35496;-21.974;-46.800;2023-02-12T10:40:21;2.15;;;1.95;;
49590;SDS011;35496;-21.974;-46.800;2023-02-12T10:43:47;2.08;;;0.82;;
49590;SDS011;35496;-21.974;-46.800;2023-02-12T10:47:14;0.80;;;0.80;;
49590;SDS011;35496;-21.974;-46.800;2023-02-12T10:54:35;1.42;;;0.82;;
49590;SDS011;35496;-21.974;-46.800;2023-02-12T10:57:51;2.80;;;1.17;;
49590;SDS011;35496;-21.974;-46.800;2023-02-12T11:01:26;2.92;;;1.83;;
49590;SDS011;35496;-21.974;-46.800;2023-02-12T11:04:56;1.95;;;1.23;;
49590;SDS011;35496;-21.974;-46.800;2023-02-12T11:15:53;1.80;;;1.70;;
49590;SDS011;35496;-21.974;-46.800;2023-02-12T11:19:24;1.58;;;1.48;;
49590;SDS011;35496;-21.974;-46.800;2023-02-12T11:26:25;3.20;;;2.10;;
49590;SDS011;35496;-21.974;-46.800;2023-02-12T11:30:13;2.58;;;2.00;;
49590;SDS011;35496;-21.974;-46.800;2023-02-12T11:33:38;2.28;;;1.88;;
49590;SDS011;35496;-21.974;-46.800;2023-02-12T11:37:04;1.58;;;1.48;;
49590;SDS011;35496;-21.974;-46.800;2023-02-12T11:40:44;3.25;;;2.00;;
49590;SDS011;35496;-21.974;-46.800;2023-02-12T11:44:11;5.07;;;1.83;;
49590;SDS011;35496;-21.974;-46.800;2023-02-12T11:47:41;3.45;;;1.70;;
49590;SDS011;35496;-21.974;-46.800;2023-02-12T11:51:16;2.40;;;1.38;;
49590;SDS011;35496;-21.974;-46.800;2023-02-12T11:54:51;3.90;;;1.13;;
49590;SDS011;35496;-21.974;-46.800;2023-02-12T11:58:22;1.20;;;1.10;;
49590;SDS011;35496;-21.974;-46.800;2023-02-12T12:02:35;1.10;;;1.00;;
49590;SDS011;35496;-21.974;-46.800;2023-02-12T12:09:59;1.85;;;1.10;;
49590;SDS011;35496;-21.974;-46.800;2023-02-12T12:13:35;1.80;;;1.17;;
49590;SDS011;35496;-21.974;-46.800;2023-02-12T12:17:35;1.10;;;1.10;;
49590;SDS011;35496;-21.974;-46.800;2023-02-12T12:28:44;3.95;;;1.58;;
49590;SDS011;35496;-21.974;-46.800;2023-02-12T12:32:22;1.55;;;1.00;;
49590;SDS011;35496;-21.974;-46.800;2023-02-12T12:43:08;1.90;;;1.10;;
49590;SDS011;35496;-21.974;-46.800;2023-02-12T12:45:56;0.70;;;0.70;;
49590;SDS011;35496;-21.974;-46.800;2023-02-12T12:59:37;2.50;;;2.17;;
49590;SDS011;35496;-21.974;-46.800;2023-02-12T13:02:51;1.38;;;1.30;;
49590;SDS011;35496;-21.974;-46.800;2023-02-12T13:11:41;1.40;;;0.90;;
49590;SDS011;35496;-21.974;-46.800;2023-02-12T13:17:10;2.60;;;1.48;;
49590;SDS011;35496;-21.974;-46.800;2023-02-12T13:20:10;1.40;;;1.27;;
49590;SDS011;35496;-21.974;-46.800;2023-02-12T13:27:55;1.50;;;1.40;;
49590;SDS011;35496;-21.974;-46.800;2023-02-12T13:30:57;1.55;;;1.40;;
49590;SDS011;35496;-21.974;-46.800;2023-02-12T13:36:03;0.95;;;0.90;;
49590;SDS011;35496;-21.974;-46.800;2023-02-12T13:38:54;1.65;;;0.95;;
49590;SDS011;35496;-21.974;-46.800;2023-02-12T13:41:25;1.10;;;0.73;;
49590;SDS011;35496;-21.974;-46.800;2023-02-12T13:46:41;0.50;;;0.47;;
49590;SDS011;35496;-21.974;-46.800;2023-02-12T13:49:44;0.52;;;0.50;;
49590;SDS011;35496;-21.974;-46.800;2023-02-12T13:52:49;1.05;;;1.00;;
49590;SDS011;35496;-21.974;-46.800;2023-02-12T14:01:04;0.73;;;0.73;;
49590;SDS011;35496;-21.974;-46.800;2023-02-12T14:03:35;0.65;;;0.52;;
49590;SDS011;35496;-21.974;-46.800;2023-02-12T14:06:13;0.80;;;0.80;;
49590;SDS011;35496;-21.974;-46.800;2023-02-12T14:08:50;1.40;;;0.47;;
49590;SDS011;35496;-21.974;-46.800;2023-02-12T14:11:31;0.52;;;0.40;;
49590;SDS011;35496;-21.974;-46.800;2023-02-12T14:14:00;1.88;;;0.95;;
49590;SDS011;35496;-21.974;-46.800;2023-02-12T14:22:02;1.17;;;0.57;;
49590;SDS011;35496;-21.974;-46.800;2023-02-12T14:24:55;0.40;;;0.40;;
49590;SDS011;35496;-21.974;-46.800;2023-02-12T14:37:56;0.50;;;0.50;;
49590;SDS011;35496;-21.974;-46.800;2023-02-12T14:45:58;0.63;;;0.63;;
49590;SDS011;35496;-21.974;-46.800;2023-02-12T14:54:44;1.38;;;0.98;;
49590;SDS011;35496;-21.974;-46.800;2023-02-12T14:59:55;0.60;;;0.60;;
49590;SDS011;35496;-21.974;-46.800;2023-02-12T15:02:33;0.85;;;0.75;;
49590;SDS011;35496;-21.974;-46.800;2023-02-12T15:05:03;2.08;;;0.65;;
49590;SDS011;35496;-21.974;-46.800;2023-02-12T15:07:42;1.08;;;0.75;;
49590;SDS011;35496;-21.974;-46.800;2023-02-12T15:10:17;0.40;;;0.40;;
49590;SDS011;35496;-21.974;-46.800;2023-02-12T15:12:56;3.40;;;0.75;;
49590;SDS011;35496;-21.974;-46.800;2023-02-12T15:18:59;0.55;;;0.55;;
49590;SDS011;35496;-21.974;-46.800;2023-02-12T15:21:38;1.55;;;0.50;;
49590;SDS011;35496;-21.974;-46.800;2023-02-12T15:24:09;0.63;;;0.57;;
49590;SDS011;35496;-21.974;-46.800;2023-02-12T15:26:47;0.40;;;0.40;;
49590;SDS011;35496;-21.974;-46.800;2023-02-12T15:29:26;0.28;;;0.28;;
49590;SDS011;35496;-21.974;-46.800;2023-02-12T15:32:01;0.63;;;0.47;;
49590;SDS011;35496;-21.974;-46.800;2023-02-12T15:34:31;0.60;;;0.60;;
49590;SDS011;35496;-21.974;-46.800;2023-02-12T15:37:00;2.67;;;0.40;;
49590;SDS011;35496;-21.974;-46.800;2023-02-12T15:39:47;0.70;;;0.52;;
49590;SDS011;35496;-21.974;-46.800;2023-02-12T15:44:49;0.10;;;0.10;;
49590;SDS011;35496;-21.974;-46.800;2023-02-12T15:47:16;0.60;;;0.60;;
49590;SDS011;35496;-21.974;-46.800;2023-02-12T15:49:49;0.57;;;0.30;;
49590;SDS011;35496;-21.974;-46.800;2023-02-12T15:54:44;0.80;;;0.32;;
49590;SDS011;35496;-21.974;-46.800;2023-02-12T15:57:12;0.73;;;0.60;;
49590;SDS011;35496;-21.974;-46.800;2023-02-12T15:59:50;0.50;;;0.50;;
49590;SDS011;35496;-21.974;-46.800;2023-02-12T16:02:20;0.57;;;0.52;;
49590;SDS011;35496;-21.974;-46.800;2023-02-12T16:04:51;0.32;;;0.32;;
49590;SDS011;35496;-21.974;-46.800;2023-02-12T16:07:19;1.17;;;1.05;;
49590;SDS011;35496;-21.974;-46.800;2023-02-12T16:09:47;0.50;;;0.40;;
49590;SDS011;35496;-21.974;-46.800;2023-02-12T16:12:16;0.75;;;0.60;;
49590;SDS011;35496;-21.974;-46.800;2023-02-12T16:14:50;0.80;;;0.77;;
49590;SDS011;35496;-21.974;-46.800;2023-02-12T16:19:52;0.65;;;0.50;;
49590;SDS011;35496;-21.974;-46.800;2023-02-12T16:22:21;0.57;;;0.57;;
49590;SDS011;35496;-21.974;-46.800;2023-02-12T16:25:01;0.63;;;0.30;;
49590;SDS011;35496;-21.974;-46.800;2023-02-12T16:27:30;0.40;;;0.40;;
49590;SDS011;35496;-21.974;-46.800;2023-02-12T16:30:00;0.52;;;0.10;;
49590;SDS011;35496;-21.974;-46.800;2023-02-12T16:32:32;0.35;;;0.25;;
49590;SDS011;35496;-21.974;-46.800;2023-02-12T16:40:17;0.40;;;0.13;;
49590;SDS011;35496;-21.974;-46.800;2023-02-12T16:45:31;1.83;;;0.47;;
49590;SDS011;35496;-21.974;-46.800;2023-02-12T16:50:46;0.30;;;0.30;;
49590;SDS011;35496;-21.974;-46.800;2023-02-12T16:53:32;0.43;;;0.43;;
49590;SDS011;35496;-21.974;-46.800;2023-02-12T16:56:02;0.40;;;0.40;;
49590;SDS011;35496;-21.974;-46.800;2023-02-12T16:58:30;1.52;;;0.55;;
49590;SDS011;35496;-21.974;-46.800;2023-02-12T17:00:56;0.40;;;0.40;;
49590;SDS011;35496;-21.974;-46.800;2023-02-12T17:03:26;0.20;;;0.20;;
49590;SDS011;35496;-21.974;-46.800;2023-02-12T17:05:56;0.82;;;0.30;;
49590;SDS011;35496;-21.974;-46.800;2023-02-12T17:08:22;0.13;;;0.13;;
49590;SDS011;35496;-21.974;-46.800;2023-02-12T17:10:49;0.30;;;0.30;;
49590;SDS011;35496;-21.974;-46.800;2023-02-12T17:13:17;3.63;;;1.10;;
49590;SDS011;35496;-21.974;-46.800;2023-02-12T17:15:58;0.98;;;0.93;;
49590;SDS011;35496;-21.974;-46.800;2023-02-12T17:18:28;0.35;;;0.35;;
49590;SDS011;35496;-21.974;-46.800;2023-02-12T17:20:58;0.70;;;0.30;;
49590;SDS011;35496;-21.974;-46.800;2023-02-12T17:23:28;0.30;;;0.30;;
49590;SDS011;35496;-21.974;-46.800;2023-02-12T17:25:55;0.30;;;0.30;;
49590;SDS011;35496;-21.974;-46.800;2023-02-12T17:28:22;0.73;;;0.50;;
49590;SDS011;35496;-21.974;-46.800;2023-02-12T17:30:50;0.30;;;0.30;;
49590;SDS011;35496;-21.974;-46.800;2023-02-12T17:33:18;0.20;;;0.20;;
49590;SDS011;35496;-21.974;-46.800;2023-02-12T17:35:44;1.25;;;0.38;;
49590;SDS011;35496;-21.974;-46.800;2023-02-12T17:38:11;0.55;;;0.43;;
49590;SDS011;35496;-21.974;-46.800;2023-02-12T17:40:37;0.55;;;0.55;;
49590;SDS011;35496;-21.974;-46.800;2023-02-12T17:43:05;1.15;;;1.08;;
49590;SDS011;35496;-21.974;-46.800;2023-02-12T17:45:31;1.05;;;0.98;;
49590;SDS011;35496;-21.974;-46.800;2023-02-12T17:47:58;1.85;;;1.45;;
49590;SDS011;35496;-21.974;-46.800;2023-02-12T17:50:25;0.47;;;0.47;;
49590;SDS011;35496;-21.974;-46.800;2023-02-12T17:52:52;1.08;;;0.50;;
49590;SDS011;35496;-21.974;-46.800;2023-02-12T17:55:18;1.70;;;0.43;;
49590;SDS011;35496;-21.974;-46.800;2023-02-12T17:57:45;2.15;;;0.50;;
49590;SDS011;35496;-21.974;-46.800;2023-02-12T18:00:15;0.38;;;0.38;;
49590;SDS011;35496;-21.974;-46.800;2023-02-12T18:02:42;0.50;;;0.50;;
49590;SDS011;35496;-21.974;-46.800;2023-02-12T18:05:09;1.00;;;0.35;;
49590;SDS011;35496;-21.974;-46.800;2023-02-12T18:07:36;1.20;;;0.68;;
49590;SDS011;35496;-21.974;-46.800;2023-02-12T18:10:03;0.22;;;0.22;;
49590;SDS011;35496;-21.974;-46.800;2023-02-12T18:12:32;3.58;;;0.98;;
49590;SDS011;35496;-21.974;-46.800;2023-02-12T18:15:06;1.55;;;0.50;;
49590;SDS011;35496;-21.974;-46.800;2023-02-12T18:17:34;0.75;;;0.30;;
49590;SDS011;35496;-21.974;-46.800;2023-02-12T18:20:01;2.83;;;0.75;;
49590;SDS011;35496;-21.974;-46.800;2023-02-12T18:22:28;0.60;;;0.60;;
49590;SDS011;35496;-21.974;-46.800;2023-02-12T18:24:55;0.22;;;0.22;;
49590;SDS011;35496;-21.974;-46.800;2023-02-12T18:27:22;0.70;;;0.70;;
49590;SDS011;35496;-21.974;-46.800;2023-02-12T18:29:48;0.63;;;0.52;;
49590;SDS011;35496;-21.974;-46.800;2023-02-12T18:32:15;1.65;;;1.30;;
49590;SDS011;35496;-21.974;-46.800;2023-02-12T18:34:41;0.90;;;0.82;;
49590;SDS011;35496;-21.974;-46.800;2023-02-12T18:37:09;3.03;;;0.75;;
49590;SDS011;35496;-21.974;-46.800;2023-02-12T18:39:37;1.35;;;0.47;;
49590;SDS011;35496;-21.974;-46.800;2023-02-12T18:42:04;0.68;;;0.47;;
49590;SDS011;35496;-21.974;-46.800;2023-02-12T18:44:31;0.50;;;0.50;;
49590;SDS011;35496;-21.974;-46.800;2023-02-12T18:46:58;0.68;;;0.68;;
49590;SDS011;35496;-21.974;-46.800;2023-02-12T18:49:25;0.40;;;0.40;;
49590;SDS011;35496;-21.974;-46.800;2023-02-12T18:51:52;0.82;;;0.40;;
49590;SDS011;35496;-21.974;-46.800;2023-02-12T18:54:19;2.35;;;0.80;;
49590;SDS011;35496;-21.974;-46.800;2023-02-12T18:56:48;3.72;;;0.65;;
49590;SDS011;35496;-21.974;-46.800;2023-02-12T18:59:17;0.70;;;0.63;;
49590;SDS011;35496;-21.974;-46.800;2023-02-12T19:01:45;0.55;;;0.32;;
49590;SDS011;35496;-21.974;-46.800;2023-02-12T19:04:12;0.43;;;0.20;;
49590;SDS011;35496;-21.974;-46.800;2023-02-12T19:06:41;0.68;;;0.10;;
49590;SDS011;35496;-21.974;-46.800;2023-02-12T19:09:10;1.17;;;0.20;;
49590;SDS011;35496;-21.974;-46.800;2023-02-12T19:11:43;0.10;;;0.10;;
49590;SDS011;35496;-21.974;-46.800;2023-02-12T19:14:11;0.30;;;0.30;;
49590;SDS011;35496;-21.974;-46.800;2023-02-12T19:16:39;0.35;;;0.28;;
49590;SDS011;35496;-21.974;-46.800;2023-02-12T19:19:06;0.10;;;0.10;;
49590;SDS011;35496;-21.974;-46.800;2023-02-12T19:21:33;0.30;;;0.30;;
49590;SDS011;35496;-21.974;-46.800;2023-02-12T19:24:01;0.43;;;0.35;;
49590;SDS011;35496;-21.974;-46.800;2023-02-12T19:26:29;2.38;;;0.47;;
49590;SDS011;35496;-21.974;-46.800;2023-02-12T19:28:57;1.77;;;0.57;;
49590;SDS011;35496;-21.974;-46.800;2023-02-12T19:31:26;0.25;;;0.10;;
49590;SDS011;35496;-21.974;-46.800;2023-02-12T19:33:59;0.20;;;0.20;;
49590;SDS011;35496;-21.974;-46.800;2023-02-12T19:36:29;0.10;;;0.10;;
49590;SDS011;35496;-21.974;-46.800;2023-02-12T19:38:57;0.10;;;0.10;;
49590;SDS011;35496;-21.974;-46.800;2023-02-12T19:41:25;0.03;;;0.03;;
49590;SDS011;35496;-21.974;-46.800;2023-02-12T19:43:53;1.17;;;0.17;;
49590;SDS011;35496;-21.974;-46.800;2023-02-12T19:46:23;0.20;;;0.20;;
49590;SDS011;35496;-21.974;-46.800;2023-02-12T19:48:55;0.95;;;0.30;;
49590;SDS011;35496;-21.974;-46.800;2023-02-12T19:51:27;0.20;;;0.20;;
49590;SDS011;35496;-21.974;-46.800;2023-02-12T19:53:58;0.28;;;0.28;;
49590;SDS011;35496;-21.974;-46.800;2023-02-12T19:56:29;0.32;;;0.32;;
49590;SDS011;35496;-21.974;-46.800;2023-02-12T19:58:56;0.15;;;0.15;;
49590;SDS011;35496;-21.974;-46.800;2023-02-12T20:01:23;0.35;;;0.30;;
49590;SDS011;35496;-21.974;-46.800;2023-02-12T20:03:51;0.20;;;0.20;;
49590;SDS011;35496;-21.974;-46.800;2023-02-12T20:06:19;0.30;;;0.30;;
49590;SDS011;35496;-21.974;-46.800;2023-02-12T20:08:50;1.25;;;1.15;;
49590;SDS011;35496;-21.974;-46.800;2023-02-12T20:11:19;0.40;;;0.40;;
49590;SDS011;35496;-21.974;-46.800;2023-02-12T20:16:19;0.63;;;0.40;;
49590;SDS011;35496;-21.974;-46.800;2023-02-12T20:18:49;0.82;;;0.30;;
49590;SDS011;35496;-21.974;-46.800;2023-02-12T20:21:18;0.88;;;0.43;;
49590;SDS011;35496;-21.974;-46.800;2023-02-12T20:23:47;0.68;;;0.22;;
49590;SDS011;35496;-21.974;-46.800;2023-02-12T20:26:14;0.30;;;0.30;;
49590;SDS011;35496;-21.974;-46.800;2023-02-12T20:28:42;0.70;;;0.30;;
49590;SDS011;35496;-21.974;-46.800;2023-02-12T20:31:09;0.10;;;0.10;;
49590;SDS011;35496;-21.974;-46.800;2023-02-12T20:33:46;0.45;;;0.45;;
49590;SDS011;35496;-21.974;-46.800;2023-02-12T20:36:17;0.40;;;0.40;;
49590;SDS011;35496;-21.974;-46.800;2023-02-12T20:38:44;0.70;;;0.25;;
49590;SDS011;35496;-21.974;-46.800;2023-02-12T20:41:10;0.43;;;0.30;;
49590;SDS011;35496;-21.974;-46.800;2023-02-12T20:43:37;0.20;;;0.20;;
49590;SDS011;35496;-21.974;-46.800;2023-02-12T20:48:32;0.52;;;0.10;;
49590;SDS011;35496;-21.974;-46.800;2023-02-12T20:51:11;2.55;;;0.85;;
49590;SDS011;35496;-21.974;-46.800;2023-02-12T20:53:42;0.17;;;0.17;;
49590;SDS011;35496;-21.974;-46.800;2023-02-12T20:56:10;2.78;;;0.50;;
49590;SDS011;35496;-21.974;-46.800;2023-02-12T20:58:42;0.20;;;0.20;;